Observations for ROME URBE IT-AFB, Italy (LIRU)

LIRU 091650Z VRB02KT 9999 FEW040 13/08 Q1010
LIRU 091550Z VRB03KT 9999 FEW040 15/08 Q1010
LIRU 091450Z VRB00KT 9999 FEW035 18/10 Q1010
LIRU 091350Z VRB03KT 9999 FEW045 17/11 Q1010
LIRU 091250Z 13006KT 9999 SCT030 16/11 Q1011
LIRU 091150Z 19004KT 9999 SCT030 16/11 Q1011
LIRU 091050Z VRB01KT 9999 SCT030 13/07 Q1012
LIRU 090950Z VRB02KT 9999 SCT045 08/05 Q1013
LIRU 090850Z 00004KT CAVOK 05/03 Q1014  
LIRU 090750Z VRB04KT CAVOK 03/02 Q1015  
LIRU 090710Z 35004KT CAVOK 02/02 Q1015